Time,TemperatureF,DewpointF,PressureIn,WindDirection,WindDirectionDegrees,WindSpeedMPH,WindSpeedGustMPH,Humidity,HourlyPrecipIn,Conditions,Clouds,dailyrainin,SoftwareType,DateUTC
2013-06-11 00:00:00,82.7,26.8,29.45,South,189,4.0,4.0,13,0.00,,,0.00,Wunderground v.1.15,2013-06-11 06:00:00,
2013-06-11 00:05:00,82.6,26.7,29.45,SW,226,3.0,7.0,13,0.00,,,0.00,Wunderground v.1.15,2013-06-11 06:05:00,
2013-06-11 00:10:00,82.5,26.7,29.45,SW,219,3.0,7.0,13,0.00,,,0.00,Wunderground v.1.15,2013-06-11 06:10:00,
2013-06-11 00:16:00,82.6,26.7,29.45,South,188,4.0,9.0,13,0.00,,,0.00,Wunderground v.1.15,2013-06-11 06:16:00,
2013-06-11 00:21:00,82.7,26.8,29.45,South,178,4.0,5.0,13,0.00,,,0.00,Wunderground v.1.15,2013-06-11 06:21:00,
2013-06-11 00:26:00,82.9,27.0,29.45,SW,215,4.0,5.0,13,0.00,,,0.00,Wunderground v.1.15,2013-06-11 06:26:00,
2013-06-11 00:31:00,83.1,27.1,29.45,South,187,4.0,4.0,13,0.00,,,0.00,Wunderground v.1.15,2013-06-11 06:31:00,
2013-06-11 00:36:00,83.2,27.2,29.45,South,184,5.0,6.0,13,0.00,,,0.00,Wunderground v.1.15,2013-06-11 06:36:00,
2013-06-11 00:43:00,83.2,27.2,29.45,SW,219,5.0,5.0,13,0.00,,,0.00,Wunderground v.1.15,2013-06-11 06:43:00,
2013-06-11 00:49:00,83.2,27.2,29.46,SW,217,5.0,10.0,13,0.00,,,0.00,Wunderground v.1.15,2013-06-11 06:49:00,
2013-06-11 00:54:00,82.8,26.9,29.45,SW,215,5.0,6.0,13,0.00,,,0.00,Wunderground v.1.15,2013-06-11 06:54:00,
2013-06-11 01:00:00,82.5,26.7,29.46,SW,216,5.0,9.0,13,0.00,,,0.00,Wunderground v.1.15,2013-06-11 07:00:00,
2013-06-11 01:06:00,81.5,27.7,29.46,SW,215,6.0,9.0,14,0.00,,,0.00,Wunderground v.1.15,2013-06-11 07:06:00,
2013-06-11 01:12:00,80.3,31.5,29.45,SSE,165,6.0,9.0,17,0.00,,,0.00,Wunderground v.1.15,2013-06-11 07:12:00,
2013-06-11 01:17:00,79.8,29.6,29.45,South,184,7.0,17.0,16,0.00,,,0.00,Wunderground v.1.15,2013-06-11 07:17:00,
2013-06-11 01:24:00,80.0,29.8,29.45,South,188,6.0,8.0,16,0.00,,,0.00,Wunderground v.1.15,2013-06-11 07:24:00,
2013-06-11 01:29:00,80.2,28.3,29.45,SSW,206,4.0,8.0,15,0.00,,,0.00,Wunderground v.1.15,2013-06-11 07:29:00,
2013-06-11 01:37:00,79.8,29.6,29.45,SSE,148,2.0,4.0,16,0.00,,,0.00,Wunderground v.1.15,2013-06-11 07:37:00,
2013-06-11 01:42:00,80.3,28.4,29.45,SSE,166,3.0,5.0,15,0.00,,,0.00,Wunderground v.1.15,2013-06-11 07:42:00,
2013-06-11 01:48:00,80.9,27.2,29.45,ESE,102,3.0,6.0,14,0.00,,,0.00,Wunderground v.1.15,2013-06-11 07:48:00,
2013-06-11 01:54:00,81.3,27.5,29.45,South,186,3.0,10.0,14,0.00,,,0.00,Wunderground v.1.15,2013-06-11 07:54:00,
2013-06-11 01:59:00,81.0,29.0,29.46,South,181,3.0,10.0,15,0.00,,,0.00,Wunderground v.1.15,2013-06-11 07:59:00,
2013-06-11 02:04:00,80.6,27.0,29.46,South,178,2.0,9.0,14,0.00,,,0.00,Wunderground v.1.15,2013-06-11 08:04:00,
2013-06-11 02:10:00,81.2,27.4,29.46,WSW,240,3.0,3.0,14,0.00,,,0.00,Wunderground v.1.15,2013-06-11 08:10:00,
2013-06-11 02:16:00,81.4,25.8,29.46,SSW,196,3.0,5.0,13,0.00,,,0.00,Wunderground v.1.15,2013-06-11 08:16:00,
2013-06-11 02:21:00,82.0,28.1,29.46,South,181,4.0,4.0,14,0.00,,,0.00,Wunderground v.1.15,2013-06-11 08:21:00,
2013-06-11 02:27:00,81.8,26.1,29.46,SSW,193,3.0,5.0,13,0.00,,,0.00,Wunderground v.1.15,2013-06-11 08:27:00,
2013-06-11 02:32:00,81.7,26.0,29.47,South,174,3.0,3.0,13,0.00,,,0.00,Wunderground v.1.15,2013-06-11 08:32:00,
2013-06-11 02:37:00,81.4,25.8,29.47,SW,216,3.0,6.0,13,0.00,,,0.00,Wunderground v.1.15,2013-06-11 08:37:00,
2013-06-11 02:43:00,81.4,27.6,29.48,WNW,301,3.0,3.0,14,0.00,,,0.00,Wunderground v.1.15,2013-06-11 08:43:00,
2013-06-11 02:48:00,78.7,30.2,29.48,WSW,249,2.0,3.0,17,0.00,,,0.00,Wunderground v.1.15,2013-06-11 08:48:00,
2013-06-11 02:53:00,75.7,30.5,29.48,NNW,339,2.0,3.0,19,0.00,,,0.00,Wunderground v.1.15,2013-06-11 08:53:00,
2013-06-11 02:58:00,73.8,28.9,29.48,NNW,339,1.0,3.0,19,0.00,,,0.00,Wunderground v.1.15,2013-06-11 08:58:00,
2013-06-11 03:03:00,73.1,27.0,29.48,NNW,339,1.0,2.0,18,0.00,,,0.00,Wunderground v.1.15,2013-06-11 09:03:00,
2013-06-11 03:09:00,73.5,26.0,29.48,SW,232,1.0,4.0,17,0.00,,,0.00,Wunderground v.1.15,2013-06-11 09:09:00,
2013-06-11 03:14:00,74.5,26.8,29.48,SW,232,1.0,1.0,17,0.00,,,0.00,Wunderground v.1.15,2013-06-11 09:14:00,
2013-06-11 03:19:00,74.4,28.1,29.48,SW,232,0.0,1.0,18,0.00,,,0.00,Wunderground v.1.15,2013-06-11 09:19:00,
2013-06-11 03:24:00,73.9,29.0,29.48,WNW,296,1.0,2.0,19,0.00,,,0.00,Wunderground v.1.15,2013-06-11 09:24:00,
2013-06-11 03:29:00,73.5,28.7,29.49,NW,305,1.0,3.0,19,0.00,,,0.00,Wunderground v.1.15,2013-06-11 09:29:00,
2013-06-11 03:35:00,72.7,25.3,29.49,South,178,1.0,2.0,17,0.00,,,0.00,Wunderground v.1.15,2013-06-11 09:35:00,
2013-06-11 03:40:00,72.8,26.8,29.49,SW,220,1.0,1.0,18,0.00,,,0.00,Wunderground v.1.15,2013-06-11 09:40:00,
2013-06-11 03:46:00,73.3,22.8,29.49,South,183,0.0,1.0,15,0.00,,,0.00,Wunderground v.1.15,2013-06-11 09:46:00,
2013-06-11 03:53:00,75.4,24.5,29.49,SW,219,1.0,2.0,15,0.00,,,0.00,Wunderground v.1.15,2013-06-11 09:53:00,
2013-06-11 04:00:00,76.0,23.3,29.49,SW,227,1.0,5.0,14,0.00,,,0.00,Wunderground v.1.15,2013-06-11 10:00:00,
2013-06-11 04:06:00,76.2,23.5,29.50,SW,227,1.0,5.0,14,0.00,,,0.00,Wunderground v.1.15,2013-06-11 10:06:00,
2013-06-11 04:12:00,76.1,23.4,29.50,SW,227,0.0,2.0,14,0.00,,,0.00,Wunderground v.1.15,2013-06-11 10:12:00,
2013-06-11 04:18:00,76.1,23.4,29.50,SW,224,2.0,5.0,14,0.00,,,0.00,Wunderground v.1.15,2013-06-11 10:18:00,
2013-06-11 04:23:00,76.3,23.6,29.50,SW,227,3.0,5.0,14,0.00,,,0.00,Wunderground v.1.15,2013-06-11 10:23:00,
2013-06-11 04:28:00,76.1,23.4,29.50,South,175,3.0,5.0,14,0.00,,,0.00,Wunderground v.1.15,2013-06-11 10:28:00,
2013-06-11 04:34:00,75.8,24.8,29.50,SW,217,4.0,7.0,15,0.00,,,0.00,Wunderground v.1.15,2013-06-11 10:34:00,
2013-06-11 04:39:00,75.8,23.2,29.50,SSW,200,4.0,7.0,14,0.00,,,0.00,Wunderground v.1.15,2013-06-11 10:39:00,
2013-06-11 04:45:00,75.6,24.7,29.50,SSE,164,4.0,7.0,15,0.00,,,0.00,Wunderground v.1.15,2013-06-11 10:45:00,
2013-06-11 04:51:00,75.4,22.8,29.50,SSE,167,3.0,6.0,14,0.00,,,0.00,Wunderground v.1.15,2013-06-11 10:51:00,
2013-06-11 04:56:00,75.5,24.6,29.50,South,182,3.0,6.0,15,0.00,,,0.00,Wunderground v.1.15,2013-06-11 10:56:00,
2013-06-11 05:01:00,75.3,22.8,29.51,South,177,2.0,2.0,14,0.00,,,0.00,Wunderground v.1.15,2013-06-11 11:01:00,
2013-06-11 05:06:00,75.1,22.6,29.50,South,178,1.0,2.0,14,0.00,,,0.00,Wunderground v.1.15,2013-06-11 11:06:00,
2013-06-11 05:12:00,74.6,23.9,29.51,ESE,110,1.0,1.0,15,0.00,,,0.00,Wunderground v.1.15,2013-06-11 11:12:00,
2013-06-11 05:17:00,74.0,23.4,29.50,ESE,106,0.0,3.0,15,0.00,,,0.00,Wunderground v.1.15,2013-06-11 11:17:00,
2013-06-11 05:22:00,73.7,23.1,29.50,ESE,115,1.0,1.0,15,0.00,,,0.00,Wunderground v.1.15,2013-06-11 11:22:00,
2013-06-11 05:28:00,73.5,23.0,29.50,ESE,113,1.0,2.0,15,0.00,,,0.00,Wunderground v.1.15,2013-06-11 11:28:00,
2013-06-11 05:34:00,73.4,24.4,29.51,South,178,1.0,3.0,16,0.00,,,0.00,Wunderground v.1.15,2013-06-11 11:34:00,
2013-06-11 05:39:00,73.7,23.1,29.51,ESE,106,1.0,3.0,15,0.00,,,0.00,Wunderground v.1.15,2013-06-11 11:39:00,
2013-06-11 05:44:00,74.1,23.5,29.51,ESE,108,2.0,6.0,15,0.00,,,0.00,Wunderground v.1.15,2013-06-11 11:44:00,
2013-06-11 05:49:00,74.4,23.7,29.51,ENE,74,2.0,6.0,15,0.00,,,0.00,Wunderground v.1.15,2013-06-11 11:49:00,
2013-06-11 05:54:00,74.5,23.8,29.52,East,93,3.0,8.0,15,0.00,,,0.00,Wunderground v.1.15,2013-06-11 11:54:00,
2013-06-11 05:59:00,74.9,24.1,29.52,ESE,111,4.0,4.0,15,0.00,,,0.00,Wunderground v.1.15,2013-06-11 11:59:00,
2013-06-11 06:05:00,75.0,22.5,29.52,South,172,3.0,5.0,14,0.00,,,0.00,Wunderground v.1.15,2013-06-11 12:05:00,
2013-06-11 06:11:00,75.1,22.6,29.52,East,82,3.0,6.0,14,0.00,,,0.00,Wunderground v.1.15,2013-06-11 12:11:00,
2013-06-11 06:18:00,75.2,22.7,29.52,South,180,3.0,6.0,14,0.00,,,0.00,Wunderground v.1.15,2013-06-11 12:18:00,
2013-06-11 06:24:00,75.3,22.8,29.52,ESE,122,3.0,7.0,14,0.00,,,0.00,Wunderground v.1.15,2013-06-11 12:24:00,
2013-06-11 06:29:00,75.4,24.5,29.52,East,96,2.0,7.0,15,0.00,,,0.00,Wunderground v.1.15,2013-06-11 12:29:00,
2013-06-11 06:35:00,75.5,24.6,29.52,East,90,2.0,6.0,15,0.00,,,0.00,Wunderground v.1.15,2013-06-11 12:35:00,
2013-06-11 06:41:00,75.7,23.1,29.52,ESE,123,4.0,4.0,14,0.00,,,0.00,Wunderground v.1.15,2013-06-11 12:41:00,
2013-06-11 06:47:00,76.1,23.4,29.52,SE,143,4.0,4.0,14,0.00,,,0.00,Wunderground v.1.15,2013-06-11 12:47:00,
2013-06-11 06:53:00,76.6,23.8,29.52,SSE,167,3.0,5.0,14,0.00,,,0.00,Wunderground v.1.15,2013-06-11 12:53:00,
2013-06-11 06:58:00,76.8,24.0,29.52,SSE,157,3.0,5.0,14,0.00,,,0.00,Wunderground v.1.15,2013-06-11 12:58:00,
2013-06-11 07:03:00,76.9,24.0,29.53,South,187,3.0,3.0,14,0.00,,,0.00,Wunderground v.1.15,2013-06-11 13:03:00,
2013-06-11 07:09:00,77.2,24.3,29.53,SSW,213,3.0,13.0,14,0.00,,,0.00,Wunderground v.1.15,2013-06-11 13:09:00,
2013-06-11 07:15:00,77.7,22.9,29.53,South,190,5.0,5.0,13,0.00,,,0.00,Wunderground v.1.15,2013-06-11 13:15:00,
2013-06-11 07:20:00,78.0,24.9,29.53,SSW,198,4.0,5.0,14,0.00,,,0.00,Wunderground v.1.15,2013-06-11 13:20:00,
2013-06-11 07:26:00,78.2,23.3,29.53,South,178,3.0,6.0,13,0.00,,,0.00,Wunderground v.1.15,2013-06-11 13:26:00,
2013-06-11 07:31:00,78.7,25.5,29.53,SSW,205,2.0,2.0,14,0.00,,,0.00,Wunderground v.1.15,2013-06-11 13:31:00,
2013-06-11 07:39:00,79.2,24.1,29.53,SSE,161,2.0,5.0,13,0.00,,,0.00,Wunderground v.1.15,2013-06-11 13:39:00,
2013-06-11 07:44:00,79.8,26.3,29.53,South,173,3.0,3.0,14,0.00,,,0.00,Wunderground v.1.15,2013-06-11 13:44:00,
2013-06-11 07:50:00,80.2,31.4,29.53,NE,46,2.0,5.0,17,0.00,,,0.00,Wunderground v.1.15,2013-06-11 13:50:00,
2013-06-11 07:56:00,79.4,34.8,29.53,ENE,59,2.0,3.0,20,0.00,,,0.00,Wunderground v.1.15,2013-06-11 13:56:00,
2013-06-11 08:01:00,78.7,31.6,29.53,East,85,3.0,3.0,18,0.00,,,0.00,Wunderground v.1.15,2013-06-11 14:01:00,
2013-06-11 08:07:00,78.7,34.2,29.53,East,86,2.0,3.0,20,0.00,,,0.00,Wunderground v.1.15,2013-06-11 14:07:00,
2013-06-11 08:12:00,79.1,35.8,29.53,East,90,1.0,4.0,21,0.00,,,0.00,Wunderground v.1.15,2013-06-11 14:12:00,
2013-06-11 08:17:00,79.4,34.8,29.53,East,96,2.0,4.0,20,0.00,,,0.00,Wunderground v.1.15,2013-06-11 14:17:00,
2013-06-11 08:23:00,80.1,36.6,29.53,East,101,3.0,3.0,21,0.00,,,0.00,Wunderground v.1.15,2013-06-11 14:23:00,
2013-06-11 08:29:00,80.3,36.8,29.53,East,94,4.0,5.0,21,0.00,,,0.00,Wunderground v.1.15,2013-06-11 14:29:00,
2013-06-11 08:35:00,81.0,38.6,29.52,East,93,4.0,4.0,22,0.00,,,0.00,Wunderground v.1.15,2013-06-11 14:35:00,
2013-06-11 08:40:00,81.8,39.2,29.52,ENE,59,3.0,3.0,22,0.00,,,0.00,Wunderground v.1.15,2013-06-11 14:40:00,
2013-06-11 08:45:00,82.4,38.5,29.52,ENE,59,1.0,3.0,21,0.00,,,0.00,Wunderground v.1.15,2013-06-11 14:45:00,
2013-06-11 08:50:00,83.2,30.7,29.52,NE,36,0.0,0.0,15,0.00,,,0.00,Wunderground v.1.15,2013-06-11 14:50:00,
2013-06-11 08:56:00,84.6,33.4,29.53,East,89,2.0,6.0,16,0.00,,,0.00,Wunderground v.1.15,2013-06-11 14:56:00,
2013-06-11 09:01:00,85.3,30.7,29.53,South,176,2.0,5.0,14,0.00,,,0.00,Wunderground v.1.15,2013-06-11 15:01:00,
2013-06-11 09:07:00,85.2,28.8,29.52,West,269,3.0,5.0,13,0.00,,,0.00,Wunderground v.1.15,2013-06-11 15:07:00,
2013-06-11 09:15:00,85.4,30.8,29.53,North,360,3.0,4.0,14,0.00,,,0.00,Wunderground v.1.15,2013-06-11 15:15:00,
2013-06-11 09:21:00,85.8,31.1,29.52,SSW,205,2.0,5.0,14,0.00,,,0.00,Wunderground v.1.15,2013-06-11 15:21:00,
2013-06-11 09:26:00,85.1,30.5,29.52,South,188,5.0,12.0,14,0.00,,,0.00,Wunderground v.1.15,2013-06-11 15:26:00,
2013-06-11 09:32:00,85.3,30.7,29.52,NW,308,5.0,5.0,14,0.00,,,0.00,Wunderground v.1.15,2013-06-11 15:32:00,
2013-06-11 09:37:00,85.2,32.3,29.51,SSW,200,4.0,13.0,15,0.00,,,0.00,Wunderground v.1.15,2013-06-11 15:37:00,
2013-06-11 09:42:00,85.7,29.2,29.52,SSW,200,4.0,4.0,13,0.00,,,0.00,Wunderground v.1.15,2013-06-11 15:42:00,
2013-06-11 09:48:00,85.9,31.2,29.51,South,179,3.0,5.0,14,0.00,,,0.00,Wunderground v.1.15,2013-06-11 15:48:00,
2013-06-11 09:54:00,86.3,31.5,29.51,SW,231,3.0,6.0,14,0.00,,,0.00,Wunderground v.1.15,2013-06-11 15:54:00,
2013-06-11 10:00:00,86.2,29.6,29.51,SW,230,5.0,5.0,13,0.00,,,0.00,Wunderground v.1.15,2013-06-11 16:00:00,
2013-06-11 10:06:00,86.4,31.6,29.51,SSW,201,4.0,5.0,14,0.00,,,0.00,Wunderground v.1.15,2013-06-11 16:06:00,
2013-06-11 10:12:00,86.2,29.6,29.51,West,273,6.0,14.0,13,0.00,,,0.00,Wunderground v.1.15,2013-06-11 16:12:00,
2013-06-11 10:17:00,86.5,29.8,29.52,SSE,165,7.0,14.0,13,0.00,,,0.00,Wunderground v.1.15,2013-06-11 16:17:00,
2013-06-11 10:23:00,86.6,29.9,29.52,South,187,5.0,5.0,13,0.00,,,0.00,Wunderground v.1.15,2013-06-11 16:23:00,
2013-06-11 10:29:00,87.0,30.2,29.52,SW,217,4.0,6.0,13,0.00,,,0.00,Wunderground v.1.15,2013-06-11 16:29:00,
2013-06-11 10:34:00,86.8,30.0,29.52,SSW,212,5.0,6.0,13,0.00,,,0.00,Wunderground v.1.15,2013-06-11 16:34:00,
2013-06-11 10:39:00,86.7,28.0,29.51,East,99,5.0,6.0,12,0.00,,,0.00,Wunderground v.1.15,2013-06-11 16:39:00,
2013-06-11 10:46:00,87.2,30.4,29.51,South,171,3.0,5.0,13,0.00,,,0.00,Wunderground v.1.15,2013-06-11 16:46:00,
2013-06-11 10:52:00,88.1,32.9,29.51,South,176,2.0,7.0,14,0.00,,,0.00,Wunderground v.1.15,2013-06-11 16:52:00,
2013-06-11 10:57:00,88.4,31.3,29.51,NNW,330,4.0,9.0,13,0.00,,,0.00,Wunderground v.1.15,2013-06-11 16:57:00,
2013-06-11 11:02:00,88.3,33.1,29.51,SSW,196,5.0,6.0,14,0.00,,,0.00,Wunderground v.1.15,2013-06-11 17:02:00,
2013-06-11 11:07:00,88.4,29.3,29.51,South,178,4.0,6.0,12,0.00,,,0.00,Wunderground v.1.15,2013-06-11 17:07:00,
2013-06-11 11:13:00,88.8,31.6,29.51,South,169,3.0,4.0,13,0.00,,,0.00,Wunderground v.1.15,2013-06-11 17:13:00,
2013-06-11 11:18:00,89.0,31.8,29.51,WSW,242,3.0,6.0,13,0.00,,,0.00,Wunderground v.1.15,2013-06-11 17:18:00,
2013-06-11 11:23:00,89.0,31.8,29.51,WNW,287,4.0,6.0,13,0.00,,,0.00,Wunderground v.1.15,2013-06-11 17:23:00,
2013-06-11 11:29:00,88.7,31.5,29.52,SW,223,5.0,9.0,13,0.00,,,0.00,Wunderground v.1.15,2013-06-11 17:29:00,
2013-06-11 11:35:00,88.7,33.4,29.51,WSW,246,6.0,6.0,14,0.00,,,0.00,Wunderground v.1.15,2013-06-11 17:35:00,
2013-06-11 11:41:00,89.6,30.2,29.51,WSW,246,4.0,4.0,12,0.00,,,0.00,Wunderground v.1.15,2013-06-11 17:41:00,
2013-06-11 11:46:00,89.8,32.4,29.51,West,281,4.0,11.0,13,0.00,,,0.00,Wunderground v.1.15,2013-06-11 17:46:00,
2013-06-11 11:51:00,89.9,30.5,29.51,SW,216,6.0,9.0,12,0.00,,,0.00,Wunderground v.1.15,2013-06-11 17:51:00,
2013-06-11 11:56:00,90.1,30.6,29.51,WSW,252,6.0,9.0,12,0.00,,,0.00,Wunderground v.1.15,2013-06-11 17:56:00,
2013-06-11 12:03:00,90.2,30.7,29.51,SSW,211,5.0,10.0,12,0.00,,,0.00,Wunderground v.1.15,2013-06-11 18:03:00,
2013-06-11 12:09:00,89.5,32.2,29.51,SW,227,6.0,10.0,13,0.00,,,0.00,Wunderground v.1.15,2013-06-11 18:09:00,
2013-06-11 12:16:00,90.0,30.6,29.51,West,269,6.0,10.0,12,0.00,,,0.00,Wunderground v.1.15,2013-06-11 18:16:00,
2013-06-11 12:22:00,90.2,30.7,29.50,SW,228,6.0,6.0,12,0.00,,,0.00,Wunderground v.1.15,2013-06-11 18:22:00,
2013-06-11 12:28:00,90.2,30.7,29.50,NW,305,6.0,7.0,12,0.00,,,0.00,Wunderground v.1.15,2013-06-11 18:28:00,
2013-06-11 12:35:00,90.9,33.2,29.50,SW,232,4.0,7.0,13,0.00,,,0.00,Wunderground v.1.15,2013-06-11 18:35:00,
2013-06-11 12:41:00,90.6,31.0,29.50,WNW,301,4.0,9.0,12,0.00,,,0.00,Wunderground v.1.15,2013-06-11 18:41:00,
2013-06-11 12:46:00,91.2,31.5,29.50,West,260,4.0,9.0,12,0.00,,,0.00,Wunderground v.1.15,2013-06-11 18:46:00,
2013-06-11 12:52:00,91.4,31.6,29.50,SSW,208,5.0,6.0,12,0.00,,,0.00,Wunderground v.1.15,2013-06-11 18:52:00,
2013-06-11 12:57:00,90.7,29.0,29.51,SW,217,6.0,10.0,11,0.00,,,0.00,Wunderground v.1.15,2013-06-11 18:57:00,
2013-06-11 13:03:00,90.0,30.6,29.51,SW,223,7.0,7.0,12,0.00,,,0.00,Wunderground v.1.15,2013-06-11 19:03:00,
2013-06-11 13:09:00,89.9,30.5,29.51,SW,216,7.0,14.0,12,0.00,,,0.00,Wunderground v.1.15,2013-06-11 19:09:00,
2013-06-11 13:14:00,89.4,32.1,29.50,South,180,9.0,12.0,13,0.00,,,0.00,Wunderground v.1.15,2013-06-11 19:14:00,
2013-06-11 13:19:00,90.2,30.7,29.51,SW,218,6.0,12.0,12,0.00,,,0.00,Wunderground v.1.15,2013-06-11 19:19:00,
2013-06-11 13:24:00,90.4,30.9,29.51,SW,232,5.0,10.0,12,0.00,,,0.00,Wunderground v.1.15,2013-06-11 19:24:00,
2013-06-11 13:30:00,90.6,28.9,29.51,NNW,336,6.0,12.0,11,0.00,,,0.00,Wunderground v.1.15,2013-06-11 19:30:00,
2013-06-11 13:35:00,90.7,29.0,29.51,SW,214,7.0,13.0,11,0.00,,,0.00,Wunderground v.1.15,2013-06-11 19:35:00,
2013-06-11 13:42:00,90.8,29.0,29.50,SW,232,6.0,7.0,11,0.00,,,0.00,Wunderground v.1.15,2013-06-11 19:42:00,
2013-06-11 13:48:00,90.7,29.0,29.50,West,278,6.0,11.0,11,0.00,,,0.00,Wunderground v.1.15,2013-06-11 19:48:00,
2013-06-11 13:53:00,91.2,31.5,29.50,WNW,298,6.0,10.0,12,0.00,,,0.00,Wunderground v.1.15,2013-06-11 19:53:00,
2013-06-11 13:58:00,92.2,30.1,29.51,West,277,5.0,10.0,11,0.00,,,0.00,Wunderground v.1.15,2013-06-11 19:58:00,
2013-06-11 14:04:00,92.3,30.2,29.50,South,186,5.0,14.0,11,0.00,,,0.00,Wunderground v.1.15,2013-06-11 20:04:00,
2013-06-11 14:10:00,91.7,29.7,29.51,SSW,202,6.0,10.0,11,0.00,,,0.00,Wunderground v.1.15,2013-06-11 20:10:00,
2013-06-11 14:15:00,91.9,29.9,29.51,SW,224,7.0,13.0,11,0.00,,,0.00,Wunderground v.1.15,2013-06-11 20:15:00,
2013-06-11 14:21:00,91.7,29.7,29.51,WSW,238,6.0,6.0,11,0.00,,,0.00,Wunderground v.1.15,2013-06-11 20:21:00,
2013-06-11 14:26:00,91.4,29.5,29.51,North,9,6.0,8.0,11,0.00,,,0.00,Wunderground v.1.15,2013-06-11 20:26:00,
2013-06-11 14:31:00,91.7,29.7,29.51,SW,230,6.0,12.0,11,0.00,,,0.00,Wunderground v.1.15,2013-06-11 20:31:00,
2013-06-11 14:36:00,91.9,34.0,29.52,SSW,211,5.0,12.0,13,0.00,,,0.00,Wunderground v.1.15,2013-06-11 20:36:00,
2013-06-11 14:41:00,91.7,29.7,29.52,SW,226,5.0,6.0,11,0.00,,,0.00,Wunderground v.1.15,2013-06-11 20:41:00,
2013-06-11 14:46:00,91.8,32.0,29.51,SW,217,6.0,6.0,12,0.00,,,0.00,Wunderground v.1.15,2013-06-11 20:46:00,
2013-06-11 14:52:00,92.1,30.0,29.52,West,267,5.0,11.0,11,0.00,,,0.00,Wunderground v.1.15,2013-06-11 20:52:00,
2013-06-11 14:57:00,91.9,32.0,29.52,SW,234,5.0,11.0,12,0.00,,,0.00,Wunderground v.1.15,2013-06-11 20:57:00,
2013-06-11 15:02:00,92.3,32.3,29.52,WSW,248,5.0,8.0,12,0.00,,,0.00,Wunderground v.1.15,2013-06-11 21:02:00,
2013-06-11 15:07:00,92.2,32.3,29.52,SSW,211,6.0,12.0,12,0.00,,,0.00,Wunderground v.1.15,2013-06-11 21:07:00,
2013-06-11 15:13:00,91.6,31.8,29.52,WSW,240,7.0,7.0,12,0.00,,,0.00,Wunderground v.1.15,2013-06-11 21:13:00,
2013-06-11 15:19:00,91.9,29.9,29.52,WNW,290,5.0,7.0,11,0.00,,,0.00,Wunderground v.1.15,2013-06-11 21:19:00,
2013-06-11 15:24:00,92.2,30.1,29.52,NW,326,5.0,7.0,11,0.00,,,0.00,Wunderground v.1.15,2013-06-11 21:24:00,
2013-06-11 15:30:00,92.7,30.5,29.52,South,176,6.0,9.0,11,0.00,,,0.00,Wunderground v.1.15,2013-06-11 21:30:00,
2013-06-11 15:35:00,91.7,29.7,29.53,WSW,246,7.0,13.0,11,0.00,,,0.00,Wunderground v.1.15,2013-06-11 21:35:00,
2013-06-11 15:43:00,91.6,31.8,29.52,NW,319,7.0,10.0,12,0.00,,,0.00,Wunderground v.1.15,2013-06-11 21:43:00,
2013-06-11 15:49:00,91.9,32.0,29.52,SW,227,6.0,18.0,12,0.00,,,0.00,Wunderground v.1.15,2013-06-11 21:49:00,
2013-06-11 15:55:00,92.3,32.3,29.52,NW,316,6.0,7.0,12,0.00,,,0.00,Wunderground v.1.15,2013-06-11 21:55:00,
2013-06-11 16:00:00,92.5,32.5,29.53,West,278,4.0,6.0,12,0.00,,,0.00,Wunderground v.1.15,2013-06-11 22:00:00,
2013-06-11 16:05:00,91.7,31.9,29.53,SSW,213,6.0,13.0,12,0.00,,,0.00,Wunderground v.1.15,2013-06-11 22:05:00,
2013-06-11 16:11:00,91.3,31.6,29.53,South,184,6.0,6.0,12,0.00,,,0.00,Wunderground v.1.15,2013-06-11 22:11:00,
2013-06-11 16:16:00,91.7,33.9,29.52,South,189,4.0,13.0,13,0.00,,,0.00,Wunderground v.1.15,2013-06-11 22:16:00,
2013-06-11 16:22:00,92.2,32.3,29.52,WSW,244,5.0,5.0,12,0.00,,,0.00,Wunderground v.1.15,2013-06-11 22:22:00,
2013-06-11 16:27:00,92.4,32.4,29.52,NW,312,4.0,14.0,12,0.00,,,0.00,Wunderground v.1.15,2013-06-11 22:27:00,
2013-06-11 16:33:00,92.8,32.7,29.52,WNW,295,4.0,5.0,12,0.00,,,0.00,Wunderground v.1.15,2013-06-11 22:33:00,
2013-06-11 16:38:00,92.5,30.3,29.52,West,267,4.0,5.0,11,0.00,,,0.00,Wunderground v.1.15,2013-06-11 22:38:00,
2013-06-11 16:43:00,91.8,32.0,29.52,WNW,290,4.0,4.0,12,0.00,,,0.00,Wunderground v.1.15,2013-06-11 22:43:00,
2013-06-11 16:48:00,92.2,30.1,29.52,South,180,4.0,4.0,11,0.00,,,0.00,Wunderground v.1.15,2013-06-11 22:48:00,
2013-06-11 16:53:00,92.6,30.4,29.52,SSW,206,3.0,9.0,11,0.00,,,0.00,Wunderground v.1.15,2013-06-11 22:53:00,
2013-06-11 16:59:00,92.8,32.7,29.52,ESE,103,3.0,9.0,12,0.00,,,0.00,Wunderground v.1.15,2013-06-11 22:59:00,
2013-06-11 17:04:00,92.8,34.7,29.52,WSW,237,3.0,5.0,13,0.00,,,0.00,Wunderground v.1.15,2013-06-11 23:04:00,
2013-06-11 17:10:00,93.1,33.0,29.52,NNE,15,2.0,3.0,12,0.00,,,0.00,Wunderground v.1.15,2013-06-11 23:10:00,
2013-06-11 17:16:00,93.3,31.0,29.52,SW,235,2.0,6.0,11,0.00,,,0.00,Wunderground v.1.15,2013-06-11 23:16:00,
2013-06-11 17:21:00,92.6,30.4,29.52,SW,221,4.0,4.0,11,0.00,,,0.00,Wunderground v.1.15,2013-06-11 23:21:00,
2013-06-11 17:26:00,92.2,32.3,29.52,WSW,247,4.0,6.0,12,0.00,,,0.00,Wunderground v.1.15,2013-06-11 23:26:00,
2013-06-11 17:31:00,92.1,30.0,29.52,ENE,73,3.0,3.0,11,0.00,,,0.00,Wunderground v.1.15,2013-06-11 23:31:00,
2013-06-11 17:37:00,92.1,32.2,29.52,SSW,206,2.0,4.0,12,0.00,,,0.00,Wunderground v.1.15,2013-06-11 23:37:00,
2013-06-11 17:42:00,91.6,31.8,29.52,West,281,4.0,7.0,12,0.00,,,0.00,Wunderground v.1.15,2013-06-11 23:42:00,
2013-06-11 17:47:00,91.5,29.6,29.51,NNW,338,6.0,10.0,11,0.00,,,0.00,Wunderground v.1.15,2013-06-11 23:47:00,
2013-06-11 17:52:00,91.7,29.7,29.51,SSW,213,4.0,9.0,11,0.00,,,0.00,Wunderground v.1.15,2013-06-11 23:52:00,
2013-06-11 17:57:00,91.9,29.9,29.51,WNW,298,4.0,9.0,11,0.00,,,0.00,Wunderground v.1.15,2013-06-11 23:57:00,
2013-06-11 18:02:00,92.0,32.1,29.51,WNW,286,4.0,5.0,12,0.00,,,0.00,Wunderground v.1.15,2013-06-12 00:02:00,
2013-06-11 18:08:00,92.2,32.3,29.51,WSW,254,4.0,16.0,12,0.00,,,0.00,Wunderground v.1.15,2013-06-12 00:08:00,
2013-06-11 18:15:00,91.9,32.0,29.51,SSW,213,4.0,6.0,12,0.00,,,0.00,Wunderground v.1.15,2013-06-12 00:15:00,
2013-06-11 18:20:00,92.1,32.2,29.51,WNW,292,2.0,2.0,12,0.00,,,0.00,Wunderground v.1.15,2013-06-12 00:20:00,
2013-06-11 18:25:00,91.8,29.8,29.51,SSW,197,2.0,8.0,11,0.00,,,0.00,Wunderground v.1.15,2013-06-12 00:25:00,
2013-06-11 18:31:00,91.7,29.7,29.51,SW,219,2.0,2.0,11,0.00,,,0.00,Wunderground v.1.15,2013-06-12 00:31:00,
2013-06-11 18:37:00,91.8,29.8,29.51,SW,225,2.0,10.0,11,0.00,,,0.00,Wunderground v.1.15,2013-06-12 00:37:00,
2013-06-11 18:43:00,91.6,29.6,29.51,WNW,297,3.0,4.0,11,0.00,,,0.00,Wunderground v.1.15,2013-06-12 00:43:00,
2013-06-11 18:50:00,90.7,31.1,29.51,WNW,294,6.0,11.0,12,0.00,,,0.00,Wunderground v.1.15,2013-06-12 00:50:00,
2013-06-11 18:56:00,90.2,30.7,29.51,WNW,286,4.0,6.0,12,0.00,,,0.00,Wunderground v.1.15,2013-06-12 00:56:00,
2013-06-11 19:01:00,89.9,30.5,29.51,WNW,284,1.0,2.0,12,0.00,,,0.00,Wunderground v.1.15,2013-06-12 01:01:00,
2013-06-11 19:06:00,89.5,30.2,29.51,WSW,252,2.0,5.0,12,0.00,,,0.00,Wunderground v.1.15,2013-06-12 01:06:00,
2013-06-11 19:11:00,89.2,29.9,29.51,SW,222,3.0,3.0,12,0.00,,,0.00,Wunderground v.1.15,2013-06-12 01:11:00,
2013-06-11 19:17:00,89.1,29.9,29.51,NW,304,2.0,12.0,12,0.00,,,0.00,Wunderground v.1.15,2013-06-12 01:17:00,
2013-06-11 19:22:00,89.0,31.8,29.51,South,181,3.0,5.0,13,0.00,,,0.00,Wunderground v.1.15,2013-06-12 01:22:00,
2013-06-11 19:28:00,88.8,29.6,29.51,SSW,210,3.0,5.0,12,0.00,,,0.00,Wunderground v.1.15,2013-06-12 01:28:00,
2013-06-11 19:34:00,88.6,31.4,29.51,SSW,213,2.0,2.0,13,0.00,,,0.00,Wunderground v.1.15,2013-06-12 01:34:00,
2013-06-11 19:40:00,88.2,31.1,29.52,SSW,202,1.0,1.0,13,0.00,,,0.00,Wunderground v.1.15,2013-06-12 01:40:00,
2013-06-11 19:46:00,88.0,31.0,29.52,South,169,1.0,3.0,13,0.00,,,0.00,Wunderground v.1.15,2013-06-12 01:46:00,
2013-06-11 19:51:00,87.8,30.8,29.52,SSE,164,1.0,2.0,13,0.00,,,0.00,Wunderground v.1.15,2013-06-12 01:51:00,
2013-06-11 19:56:00,87.7,30.7,29.53,SSW,198,1.0,2.0,13,0.00,,,0.00,Wunderground v.1.15,2013-06-12 01:56:00,
2013-06-11 20:02:00,87.5,30.6,29.53,South,191,1.0,1.0,13,0.00,,,0.00,Wunderground v.1.15,2013-06-12 02:02:00,
2013-06-11 20:08:00,87.2,28.4,29.53,SW,225,2.0,4.0,12,0.00,,,0.00,Wunderground v.1.15,2013-06-12 02:08:00,
2013-06-11 20:14:00,87.4,30.5,29.53,SSW,207,2.0,3.0,13,0.00,,,0.00,Wunderground v.1.15,2013-06-12 02:14:00,
2013-06-11 20:20:00,87.1,30.3,29.53,SSW,208,1.0,1.0,13,0.00,,,0.00,Wunderground v.1.15,2013-06-12 02:20:00,
2013-06-11 20:25:00,86.8,30.0,29.54,SW,236,0.0,4.0,13,0.00,,,0.00,Wunderground v.1.15,2013-06-12 02:25:00,
2013-06-11 20:31:00,86.3,29.6,29.54,WSW,239,0.0,0.0,13,0.00,,,0.00,Wunderground v.1.15,2013-06-12 02:31:00,
2013-06-11 20:37:00,85.7,31.0,29.54,SSE,167,1.0,2.0,14,0.00,,,0.00,Wunderground v.1.15,2013-06-12 02:37:00,
2013-06-11 20:42:00,85.2,30.6,29.54,SSE,167,0.0,0.0,14,0.00,,,0.00,Wunderground v.1.15,2013-06-12 02:42:00,
2013-06-11 20:48:00,84.3,29.9,29.55,SSE,167,0.0,0.0,14,0.00,,,0.00,Wunderground v.1.15,2013-06-12 02:48:00,
2013-06-11 20:53:00,83.0,30.6,29.55,SSE,167,0.0,0.0,15,0.00,,,0.00,Wunderground v.1.15,2013-06-12 02:53:00,
2013-06-11 20:59:00,82.0,29.8,29.55,SSE,167,0.0,0.0,15,0.00,,,0.00,Wunderground v.1.15,2013-06-12 02:59:00,
2013-06-11 21:05:00,82.1,29.8,29.55,WSW,248,0.0,3.0,15,0.00,,,0.00,Wunderground v.1.15,2013-06-12 03:05:00,
2013-06-11 21:11:00,82.3,28.3,29.55,WSW,248,0.0,0.0,14,0.00,,,0.00,Wunderground v.1.15,2013-06-12 03:11:00,
2013-06-11 21:17:00,82.2,29.9,29.56,WSW,248,0.0,1.0,15,0.00,,,0.00,Wunderground v.1.15,2013-06-12 03:17:00,
2013-06-11 21:23:00,81.9,29.7,29.56,SSW,206,0.0,5.0,15,0.00,,,0.00,Wunderground v.1.15,2013-06-12 03:23:00,
2013-06-11 21:28:00,82.1,29.8,29.56,SSW,193,2.0,7.0,15,0.00,,,0.00,Wunderground v.1.15,2013-06-12 03:28:00,
2013-06-11 21:34:00,82.4,31.7,29.57,SSW,193,3.0,4.0,16,0.00,,,0.00,Wunderground v.1.15,2013-06-12 03:34:00,
2013-06-11 21:39:00,82.3,30.0,29.57,SSW,199,3.0,4.0,15,0.00,,,0.00,Wunderground v.1.15,2013-06-12 03:39:00,
2013-06-11 21:44:00,82.0,31.4,29.58,South,179,2.0,3.0,16,0.00,,,0.00,Wunderground v.1.15,2013-06-12 03:44:00,
2013-06-11 21:49:00,81.6,29.4,29.58,SW,214,2.0,5.0,15,0.00,,,0.00,Wunderground v.1.15,2013-06-12 03:49:00,
2013-06-11 21:55:00,81.7,29.5,29.58,SW,219,4.0,7.0,15,0.00,,,0.00,Wunderground v.1.15,2013-06-12 03:55:00,
2013-06-11 22:01:00,81.9,29.7,29.59,SW,218,4.0,6.0,15,0.00,,,0.00,Wunderground v.1.15,2013-06-12 04:01:00,
2013-06-11 22:02:00,81.9,31.3,29.59,SW,226,4.0,6.0,16,0.00,,,0.00,Wunderground v.1.15,2013-06-12 04:02:00,
2013-06-11 22:05:00,81.8,31.2,29.59,SSW,197,4.0,6.0,16,0.00,,,0.00,Wunderground v.1.15,2013-06-12 04:05:00,
2013-06-11 22:07:00,81.6,29.4,29.59,SW,218,4.0,6.0,15,0.00,,,0.00,Wunderground v.1.15,2013-06-12 04:07:00,
2013-06-11 22:12:00,81.3,30.8,29.59,SW,215,3.0,4.0,16,0.00,,,0.00,Wunderground v.1.15,2013-06-12 04:12:00,
2013-06-11 22:17:00,81.4,30.9,29.59,SSW,211,4.0,7.0,16,0.00,,,0.00,Wunderground v.1.15,2013-06-12 04:17:00,
2013-06-11 22:22:00,81.4,29.3,29.60,SSW,210,4.0,6.0,15,0.00,,,0.00,Wunderground v.1.15,2013-06-12 04:22:00,
2013-06-11 22:28:00,81.3,30.8,29.60,SSW,192,5.0,6.0,16,0.00,,,0.00,Wunderground v.1.15,2013-06-12 04:28:00,
2013-06-11 22:33:00,81.1,29.1,29.60,SW,215,4.0,6.0,15,0.00,,,0.00,Wunderground v.1.15,2013-06-12 04:33:00,
2013-06-11 22:39:00,81.3,30.8,29.60,SSW,211,5.0,9.0,16,0.00,,,0.00,Wunderground v.1.15,2013-06-12 04:39:00,
2013-06-11 22:45:00,81.4,29.3,29.60,SSW,213,5.0,9.0,15,0.00,,,0.00,Wunderground v.1.15,2013-06-12 04:45:00,
2013-06-11 22:50:00,81.3,29.2,29.60,SW,216,6.0,9.0,15,0.00,,,0.00,Wunderground v.1.15,2013-06-12 04:50:00,
2013-06-11 22:56:00,81.1,29.1,29.61,SW,219,5.0,7.0,15,0.00,,,0.00,Wunderground v.1.15,2013-06-12 04:56:00,
2013-06-11 23:01:00,81.1,29.1,29.61,SSE,149,5.0,6.0,15,0.00,,,0.00,Wunderground v.1.15,2013-06-12 05:01:00,
2013-06-11 23:07:00,81.0,30.6,29.61,SW,214,5.0,8.0,16,0.00,,,0.00,Wunderground v.1.15,2013-06-12 05:07:00,
2013-06-11 23:12:00,80.8,28.8,29.61,SW,217,5.0,6.0,15,0.00,,,0.00,Wunderground v.1.15,2013-06-12 05:12:00,
2013-06-11 23:17:00,80.6,30.2,29.61,SW,230,5.0,6.0,16,0.00,,,0.00,Wunderground v.1.15,2013-06-12 05:17:00,
2013-06-11 23:22:00,80.5,30.2,29.61,SW,217,5.0,5.0,16,0.00,,,0.00,Wunderground v.1.15,2013-06-12 05:22:00,
2013-06-11 23:27:00,80.8,28.8,29.61,SW,223,4.0,6.0,15,0.00,,,0.00,Wunderground v.1.15,2013-06-12 05:27:00,
2013-06-11 23:33:00,80.3,31.5,29.61,WNW,297,3.0,3.0,17,0.00,,,0.00,Wunderground v.1.15,2013-06-12 05:33:00,
2013-06-11 23:38:00,78.9,28.9,29.61,WNW,296,1.0,3.0,16,0.00,,,0.00,Wunderground v.1.15,2013-06-12 05:38:00,
2013-06-11 23:44:00,78.5,30.0,29.61,WNW,296,0.0,1.0,17,0.00,,,0.00,Wunderground v.1.15,2013-06-12 05:44:00,
2013-06-11 23:49:00,77.8,30.9,29.62,WNW,297,0.0,0.0,18,0.00,,,0.00,Wunderground v.1.15,2013-06-12 05:49:00,
2013-06-11 23:55:00,77.1,30.3,29.62,WNW,297,0.0,0.0,18,0.00,,,0.00,Wunderground v.1.15,2013-06-12 05:55:00,